sensor_id;sensor_type;location;lat;lon;timestamp;P1;durP1;ratioP1;P2;durP2;ratioP2
14817;SDS011;7500;57.698;11.986;2023-06-24T00:01:55;16.87;;;8.00;;
14817;SDS011;7500;57.698;11.986;2023-06-24T00:04:22;10.50;;;7.43;;
14817;SDS011;7500;57.698;11.986;2023-06-24T00:06:49;11.90;;;7.33;;
14817;SDS011;7500;57.698;11.986;2023-06-24T00:09:17;11.97;;;6.93;;
14817;SDS011;7500;57.698;11.986;2023-06-24T00:11:44;13.03;;;7.00;;
14817;SDS011;7500;57.698;11.986;2023-06-24T00:14:11;12.07;;;7.13;;
14817;SDS011;7500;57.698;11.986;2023-06-24T00:16:40;16.53;;;7.23;;
14817;SDS011;7500;57.698;11.986;2023-06-24T00:19:08;12.00;;;7.17;;
14817;SDS011;7500;57.698;11.986;2023-06-24T00:21:34;13.87;;;7.47;;
14817;SDS011;7500;57.698;11.986;2023-06-24T00:24:02;13.00;;;7.07;;
14817;SDS011;7500;57.698;11.986;2023-06-24T00:26:29;13.93;;;7.17;;
14817;SDS011;7500;57.698;11.986;2023-06-24T00:28:57;11.07;;;7.17;;
14817;SDS011;7500;57.698;11.986;2023-06-24T00:31:24;11.43;;;7.47;;
14817;SDS011;7500;57.698;11.986;2023-06-24T00:33:50;13.57;;;7.57;;
14817;SDS011;7500;57.698;11.986;2023-06-24T00:36:19;10.80;;;6.97;;
14817;SDS011;7500;57.698;11.986;2023-06-24T00:38:46;9.40;;;6.33;;
14817;SDS011;7500;57.698;11.986;2023-06-24T00:41:13;11.17;;;7.27;;
14817;SDS011;7500;57.698;11.986;2023-06-24T00:43:42;11.23;;;7.27;;
14817;SDS011;7500;57.698;11.986;2023-06-24T00:46:08;11.47;;;7.03;;
14817;SDS011;7500;57.698;11.986;2023-06-24T00:48:35;11.93;;;6.83;;
14817;SDS011;7500;57.698;11.986;2023-06-24T00:51:02;11.07;;;7.33;;
14817;SDS011;7500;57.698;11.986;2023-06-24T00:53:30;11.33;;;6.47;;
14817;SDS011;7500;57.698;11.986;2023-06-24T00:55:56;14.73;;;7.67;;
14817;SDS011;7500;57.698;11.986;2023-06-24T00:58:27;13.67;;;6.87;;
14817;SDS011;7500;57.698;11.986;2023-06-24T01:00:55;17.00;;;7.23;;
14817;SDS011;7500;57.698;11.986;2023-06-24T01:03:23;12.90;;;7.20;;
14817;SDS011;7500;57.698;11.986;2023-06-24T01:05:50;19.00;;;8.33;;
14817;SDS011;7500;57.698;11.986;2023-06-24T01:08:16;10.43;;;7.20;;
14817;SDS011;7500;57.698;11.986;2023-06-24T01:10:45;12.97;;;7.60;;
14817;SDS011;7500;57.698;11.986;2023-06-24T01:13:12;10.70;;;7.53;;
14817;SDS011;7500;57.698;11.986;2023-06-24T01:15:38;13.37;;;7.47;;
14817;SDS011;7500;57.698;11.986;2023-06-24T01:18:06;16.73;;;8.07;;
14817;SDS011;7500;57.698;11.986;2023-06-24T01:20:36;15.97;;;8.17;;
14817;SDS011;7500;57.698;11.986;2023-06-24T01:23:11;11.60;;;7.53;;
14817;SDS011;7500;57.698;11.986;2023-06-24T01:25:52;11.47;;;7.90;;
14817;SDS011;7500;57.698;11.986;2023-06-24T01:28:25;13.13;;;7.80;;
14817;SDS011;7500;57.698;11.986;2023-06-24T01:31:16;11.67;;;7.40;;
14817;SDS011;7500;57.698;11.986;2023-06-24T01:33:45;13.73;;;8.07;;
14817;SDS011;7500;57.698;11.986;2023-06-24T01:36:14;10.37;;;8.20;;
14817;SDS011;7500;57.698;11.986;2023-06-24T01:38:43;13.47;;;7.80;;
14817;SDS011;7500;57.698;11.986;2023-06-24T01:41:11;14.67;;;8.07;;
14817;SDS011;7500;57.698;11.986;2023-06-24T01:43:38;20.33;;;8.03;;
14817;SDS011;7500;57.698;11.986;2023-06-24T01:46:07;15.57;;;8.07;;
14817;SDS011;7500;57.698;11.986;2023-06-24T01:48:36;10.80;;;8.27;;
14817;SDS011;7500;57.698;11.986;2023-06-24T01:51:07;12.70;;;7.53;;
14817;SDS011;7500;57.698;11.986;2023-06-24T01:53:35;11.97;;;7.87;;
14817;SDS011;7500;57.698;11.986;2023-06-24T01:56:04;11.83;;;7.83;;
14817;SDS011;7500;57.698;11.986;2023-06-24T01:58:32;11.23;;;7.40;;
14817;SDS011;7500;57.698;11.986;2023-06-24T02:01:00;13.60;;;8.10;;
14817;SDS011;7500;57.698;11.986;2023-06-24T02:03:27;12.63;;;8.03;;
14817;SDS011;7500;57.698;11.986;2023-06-24T02:05:56;11.13;;;7.83;;
14817;SDS011;7500;57.698;11.986;2023-06-24T02:08:23;10.00;;;8.00;;
14817;SDS011;7500;57.698;11.986;2023-06-24T02:10:50;12.70;;;8.23;;
14817;SDS011;7500;57.698;11.986;2023-06-24T02:13:17;13.10;;;8.87;;
14817;SDS011;7500;57.698;11.986;2023-06-24T02:15:44;13.50;;;9.03;;
14817;SDS011;7500;57.698;11.986;2023-06-24T02:18:12;13.97;;;8.23;;
14817;SDS011;7500;57.698;11.986;2023-06-24T02:20:40;14.60;;;8.83;;
14817;SDS011;7500;57.698;11.986;2023-06-24T02:23:10;11.60;;;8.33;;
14817;SDS011;7500;57.698;11.986;2023-06-24T02:25:37;14.27;;;8.93;;
14817;SDS011;7500;57.698;11.986;2023-06-24T02:28:05;12.50;;;8.40;;
14817;SDS011;7500;57.698;11.986;2023-06-24T02:30:32;13.87;;;8.50;;
14817;SDS011;7500;57.698;11.986;2023-06-24T02:33:00;14.90;;;8.53;;
14817;SDS011;7500;57.698;11.986;2023-06-24T02:35:27;13.50;;;8.23;;
14817;SDS011;7500;57.698;11.986;2023-06-24T02:37:53;13.43;;;8.63;;
14817;SDS011;7500;57.698;11.986;2023-06-24T02:40:21;11.67;;;8.17;;
14817;SDS011;7500;57.698;11.986;2023-06-24T02:42:48;12.87;;;8.20;;
14817;SDS011;7500;57.698;11.986;2023-06-24T02:45:15;14.43;;;8.50;;
14817;SDS011;7500;57.698;11.986;2023-06-24T02:47:42;14.53;;;9.40;;
14817;SDS011;7500;57.698;11.986;2023-06-24T02:50:10;11.90;;;8.53;;
14817;SDS011;7500;57.698;11.986;2023-06-24T02:52:37;12.70;;;8.33;;
14817;SDS011;7500;57.698;11.986;2023-06-24T02:55:04;11.37;;;8.63;;
14817;SDS011;7500;57.698;11.986;2023-06-24T02:57:33;10.73;;;8.70;;
14817;SDS011;7500;57.698;11.986;2023-06-24T03:00:01;13.90;;;8.77;;
14817;SDS011;7500;57.698;11.986;2023-06-24T03:02:33;11.17;;;8.43;;
14817;SDS011;7500;57.698;11.986;2023-06-24T03:04:59;11.97;;;8.43;;
14817;SDS011;7500;57.698;11.986;2023-06-24T03:07:27;13.00;;;8.23;;
14817;SDS011;7500;57.698;11.986;2023-06-24T03:09:55;12.40;;;9.00;;
14817;SDS011;7500;57.698;11.986;2023-06-24T03:12:23;10.97;;;8.43;;
14817;SDS011;7500;57.698;11.986;2023-06-24T03:14:51;14.87;;;8.93;;
14817;SDS011;7500;57.698;11.986;2023-06-24T03:17:17;11.20;;;8.60;;
14817;SDS011;7500;57.698;11.986;2023-06-24T03:19:44;15.07;;;8.93;;
14817;SDS011;7500;57.698;11.986;2023-06-24T03:22:10;12.20;;;9.07;;
14817;SDS011;7500;57.698;11.986;2023-06-24T03:24:37;12.70;;;8.80;;
14817;SDS011;7500;57.698;11.986;2023-06-24T03:27:04;15.27;;;8.87;;
14817;SDS011;7500;57.698;11.986;2023-06-24T03:29:31;13.03;;;8.77;;
14817;SDS011;7500;57.698;11.986;2023-06-24T03:31:59;13.80;;;8.33;;
14817;SDS011;7500;57.698;11.986;2023-06-24T03:34:25;12.27;;;8.87;;
14817;SDS011;7500;57.698;11.986;2023-06-24T03:36:52;8.87;;;7.97;;
14817;SDS011;7500;57.698;11.986;2023-06-24T03:39:19;13.80;;;8.30;;
14817;SDS011;7500;57.698;11.986;2023-06-24T03:41:46;12.07;;;8.93;;
14817;SDS011;7500;57.698;11.986;2023-06-24T03:44:12;14.60;;;8.63;;
14817;SDS011;7500;57.698;11.986;2023-06-24T03:46:39;11.70;;;8.47;;
14817;SDS011;7500;57.698;11.986;2023-06-24T03:49:07;12.57;;;8.77;;
14817;SDS011;7500;57.698;11.986;2023-06-24T03:51:34;13.20;;;8.83;;
14817;SDS011;7500;57.698;11.986;2023-06-24T03:54:00;14.70;;;9.20;;
14817;SDS011;7500;57.698;11.986;2023-06-24T03:56:27;12.80;;;8.47;;
14817;SDS011;7500;57.698;11.986;2023-06-24T03:58:53;13.10;;;9.10;;
14817;SDS011;7500;57.698;11.986;2023-06-24T04:01:20;12.90;;;8.77;;
14817;SDS011;7500;57.698;11.986;2023-06-24T04:03:47;9.97;;;8.90;;
14817;SDS011;7500;57.698;11.986;2023-06-24T04:06:15;10.83;;;8.03;;
14817;SDS011;7500;57.698;11.986;2023-06-24T04:08:41;12.27;;;9.20;;
14817;SDS011;7500;57.698;11.986;2023-06-24T04:11:09;12.70;;;8.47;;
14817;SDS011;7500;57.698;11.986;2023-06-24T04:13:36;10.03;;;8.07;;
14817;SDS011;7500;57.698;11.986;2023-06-24T04:16:03;12.60;;;8.27;;
14817;SDS011;7500;57.698;11.986;2023-06-24T04:18:30;12.83;;;8.43;;
14817;SDS011;7500;57.698;11.986;2023-06-24T04:20:56;10.07;;;7.77;;
14817;SDS011;7500;57.698;11.986;2023-06-24T04:23:24;12.13;;;8.20;;
14817;SDS011;7500;57.698;11.986;2023-06-24T04:25:51;8.43;;;7.23;;
14817;SDS011;7500;57.698;11.986;2023-06-24T04:28:17;15.27;;;8.67;;
14817;SDS011;7500;57.698;11.986;2023-06-24T04:30:44;9.90;;;8.10;;
14817;SDS011;7500;57.698;11.986;2023-06-24T04:33:10;12.50;;;8.70;;
14817;SDS011;7500;57.698;11.986;2023-06-24T04:35:37;13.33;;;8.33;;
14817;SDS011;7500;57.698;11.986;2023-06-24T04:38:04;10.73;;;8.23;;
14817;SDS011;7500;57.698;11.986;2023-06-24T04:40:32;11.97;;;8.17;;
14817;SDS011;7500;57.698;11.986;2023-06-24T04:42:58;12.53;;;8.43;;
14817;SDS011;7500;57.698;11.986;2023-06-24T04:45:25;11.60;;;8.10;;
14817;SDS011;7500;57.698;11.986;2023-06-24T04:47:52;11.03;;;8.80;;
14817;SDS011;7500;57.698;11.986;2023-06-24T04:50:18;10.57;;;8.23;;
14817;SDS011;7500;57.698;11.986;2023-06-24T04:52:45;13.07;;;8.50;;
14817;SDS011;7500;57.698;11.986;2023-06-24T04:55:12;11.93;;;8.80;;
14817;SDS011;7500;57.698;11.986;2023-06-24T04:57:40;8.67;;;7.73;;
14817;SDS011;7500;57.698;11.986;2023-06-24T05:00:09;11.93;;;9.13;;
14817;SDS011;7500;57.698;11.986;2023-06-24T05:02:35;11.83;;;8.87;;
14817;SDS011;7500;57.698;11.986;2023-06-24T05:05:02;10.37;;;8.63;;
14817;SDS011;7500;57.698;11.986;2023-06-24T05:07:29;9.80;;;8.20;;
14817;SDS011;7500;57.698;11.986;2023-06-24T05:09:56;10.17;;;8.17;;
14817;SDS011;7500;57.698;11.986;2023-06-24T05:12:22;12.70;;;8.30;;
14817;SDS011;7500;57.698;11.986;2023-06-24T05:14:51;10.70;;;7.90;;
14817;SDS011;7500;57.698;11.986;2023-06-24T05:17:18;11.63;;;8.43;;
14817;SDS011;7500;57.698;11.986;2023-06-24T05:19:44;10.23;;;7.80;;
14817;SDS011;7500;57.698;11.986;2023-06-24T05:22:11;9.83;;;7.70;;
14817;SDS011;7500;57.698;11.986;2023-06-24T05:24:38;11.83;;;7.83;;
14817;SDS011;7500;57.698;11.986;2023-06-24T05:27:06;11.63;;;7.73;;
14817;SDS011;7500;57.698;11.986;2023-06-24T05:29:33;10.97;;;7.57;;
14817;SDS011;7500;57.698;11.986;2023-06-24T05:32:01;12.13;;;8.07;;
14817;SDS011;7500;57.698;11.986;2023-06-24T05:34:28;13.23;;;7.83;;
14817;SDS011;7500;57.698;11.986;2023-06-24T05:36:55;9.15;;;8.07;;
14817;SDS011;7500;57.698;11.986;2023-06-24T05:39:22;12.00;;;7.27;;
14817;SDS011;7500;57.698;11.986;2023-06-24T05:41:48;14.77;;;7.77;;
14817;SDS011;7500;57.698;11.986;2023-06-24T05:44:15;11.30;;;6.97;;
14817;SDS011;7500;57.698;11.986;2023-06-24T05:46:43;9.53;;;6.73;;
14817;SDS011;7500;57.698;11.986;2023-06-24T05:49:11;10.37;;;6.93;;
14817;SDS011;7500;57.698;11.986;2023-06-24T05:51:37;10.67;;;6.80;;
14817;SDS011;7500;57.698;11.986;2023-06-24T05:54:04;10.53;;;6.77;;
14817;SDS011;7500;57.698;11.986;2023-06-24T05:56:32;8.27;;;5.93;;
14817;SDS011;7500;57.698;11.986;2023-06-24T05:58:59;9.27;;;6.43;;
14817;SDS011;7500;57.698;11.986;2023-06-24T06:01:26;7.10;;;5.80;;
14817;SDS011;7500;57.698;11.986;2023-06-24T06:03:52;9.30;;;5.40;;
14817;SDS011;7500;57.698;11.986;2023-06-24T06:06:20;10.73;;;5.20;;
14817;SDS011;7500;57.698;11.986;2023-06-24T06:08:47;5.83;;;5.00;;
14817;SDS011;7500;57.698;11.986;2023-06-24T06:11:14;8.93;;;5.10;;
14817;SDS011;7500;57.698;11.986;2023-06-24T06:13:40;9.03;;;5.03;;
14817;SDS011;7500;57.698;11.986;2023-06-24T06:16:07;9.60;;;5.27;;
14817;SDS011;7500;57.698;11.986;2023-06-24T06:18:33;7.20;;;5.07;;
14817;SDS011;7500;57.698;11.986;2023-06-24T06:21:00;9.50;;;5.40;;
14817;SDS011;7500;57.698;11.986;2023-06-24T06:23:28;8.73;;;5.50;;
14817;SDS011;7500;57.698;11.986;2023-06-24T06:25:54;9.73;;;5.03;;
14817;SDS011;7500;57.698;11.986;2023-06-24T06:28:21;8.10;;;5.50;;
14817;SDS011;7500;57.698;11.986;2023-06-24T06:30:48;10.03;;;5.67;;
14817;SDS011;7500;57.698;11.986;2023-06-24T06:33:14;10.50;;;5.53;;
14817;SDS011;7500;57.698;11.986;2023-06-24T06:35:41;9.67;;;5.43;;
14817;SDS011;7500;57.698;11.986;2023-06-24T06:38:07;8.23;;;5.33;;
14817;SDS011;7500;57.698;11.986;2023-06-24T06:40:35;11.67;;;5.87;;
14817;SDS011;7500;57.698;11.986;2023-06-24T06:43:02;6.80;;;5.50;;
14817;SDS011;7500;57.698;11.986;2023-06-24T06:45:29;7.10;;;5.53;;
14817;SDS011;7500;57.698;11.986;2023-06-24T06:47:55;7.53;;;5.40;;
14817;SDS011;7500;57.698;11.986;2023-06-24T06:50:22;7.93;;;5.70;;
14817;SDS011;7500;57.698;11.986;2023-06-24T06:52:48;7.93;;;5.40;;
14817;SDS011;7500;57.698;11.986;2023-06-24T06:55:15;8.13;;;5.63;;
14817;SDS011;7500;57.698;11.986;2023-06-24T06:57:43;11.43;;;5.90;;
14817;SDS011;7500;57.698;11.986;2023-06-24T07:00:10;6.57;;;5.47;;
14817;SDS011;7500;57.698;11.986;2023-06-24T07:02:37;8.93;;;6.00;;
14817;SDS011;7500;57.698;11.986;2023-06-24T07:05:04;8.33;;;5.93;;
14817;SDS011;7500;57.698;11.986;2023-06-24T07:07:31;10.33;;;5.77;;
14817;SDS011;7500;57.698;11.986;2023-06-24T07:09:58;8.33;;;5.80;;
14817;SDS011;7500;57.698;11.986;2023-06-24T07:12:25;9.57;;;6.27;;
14817;SDS011;7500;57.698;11.986;2023-06-24T07:14:53;6.90;;;5.57;;
14817;SDS011;7500;57.698;11.986;2023-06-24T07:17:19;9.57;;;5.90;;
14817;SDS011;7500;57.698;11.986;2023-06-24T07:19:46;10.23;;;5.70;;
14817;SDS011;7500;57.698;11.986;2023-06-24T07:22:13;10.47;;;5.70;;
14817;SDS011;7500;57.698;11.986;2023-06-24T07:24:39;7.67;;;5.50;;
14817;SDS011;7500;57.698;11.986;2023-06-24T07:27:06;8.77;;;5.60;;
14817;SDS011;7500;57.698;11.986;2023-06-24T07:29:32;8.33;;;5.07;;
14817;SDS011;7500;57.698;11.986;2023-06-24T07:32:00;7.43;;;5.83;;
14817;SDS011;7500;57.698;11.986;2023-06-24T07:34:28;13.17;;;5.77;;
14817;SDS011;7500;57.698;11.986;2023-06-24T07:36:55;6.53;;;5.30;;
14817;SDS011;7500;57.698;11.986;2023-06-24T07:39:22;11.07;;;5.80;;
14817;SDS011;7500;57.698;11.986;2023-06-24T07:41:49;8.10;;;5.67;;
14817;SDS011;7500;57.698;11.986;2023-06-24T07:44:15;9.10;;;5.93;;
14817;SDS011;7500;57.698;11.986;2023-06-24T07:46:42;7.47;;;5.37;;
14817;SDS011;7500;57.698;11.986;2023-06-24T07:49:10;9.27;;;5.53;;
14817;SDS011;7500;57.698;11.986;2023-06-24T07:51:36;10.27;;;5.53;;
14817;SDS011;7500;57.698;11.986;2023-06-24T07:54:03;10.33;;;6.37;;
14817;SDS011;7500;57.698;11.986;2023-06-24T07:56:29;9.90;;;6.23;;
14817;SDS011;7500;57.698;11.986;2023-06-24T07:58:56;9.87;;;5.90;;
14817;SDS011;7500;57.698;11.986;2023-06-24T08:01:23;12.27;;;6.00;;
14817;SDS011;7500;57.698;11.986;2023-06-24T08:03:49;8.40;;;5.70;;
14817;SDS011;7500;57.698;11.986;2023-06-24T08:06:17;10.17;;;6.30;;
14817;SDS011;7500;57.698;11.986;2023-06-24T08:08:44;8.33;;;5.47;;
14817;SDS011;7500;57.698;11.986;2023-06-24T08:11:11;9.43;;;6.63;;
14817;SDS011;7500;57.698;11.986;2023-06-24T08:13:38;10.67;;;5.77;;
14817;SDS011;7500;57.698;11.986;2023-06-24T08:16:05;10.83;;;5.97;;
14817;SDS011;7500;57.698;11.986;2023-06-24T08:18:31;11.30;;;6.30;;
14817;SDS011;7500;57.698;11.986;2023-06-24T08:20:58;9.57;;;6.17;;
14817;SDS011;7500;57.698;11.986;2023-06-24T08:23:26;13.93;;;6.57;;
14817;SDS011;7500;57.698;11.986;2023-06-24T08:25:53;9.90;;;6.40;;
14817;SDS011;7500;57.698;11.986;2023-06-24T08:28:20;11.07;;;6.53;;
14817;SDS011;7500;57.698;11.986;2023-06-24T08:30:46;10.63;;;6.33;;
14817;SDS011;7500;57.698;11.986;2023-06-24T08:33:13;8.50;;;6.10;;
14817;SDS011;7500;57.698;11.986;2023-06-24T08:35:39;12.10;;;6.30;;
14817;SDS011;7500;57.698;11.986;2023-06-24T08:38:06;10.27;;;6.17;;
14817;SDS011;7500;57.698;11.986;2023-06-24T08:40:34;9.70;;;6.17;;
14817;SDS011;7500;57.698;11.986;2023-06-24T08:43:00;9.90;;;6.43;;
14817;SDS011;7500;57.698;11.986;2023-06-24T08:45:27;9.97;;;6.63;;
14817;SDS011;7500;57.698;11.986;2023-06-24T08:47:55;8.67;;;6.67;;
14817;SDS011;7500;57.698;11.986;2023-06-24T08:50:22;10.90;;;6.17;;
14817;SDS011;7500;57.698;11.986;2023-06-24T08:52:51;8.27;;;6.07;;
14817;SDS011;7500;57.698;11.986;2023-06-24T08:55:19;7.70;;;6.13;;
14817;SDS011;7500;57.698;11.986;2023-06-24T08:57:47;12.63;;;6.50;;
14817;SDS011;7500;57.698;11.986;2023-06-24T09:00:15;11.63;;;6.27;;
14817;SDS011;7500;57.698;11.986;2023-06-24T09:02:42;9.50;;;6.40;;
14817;SDS011;7500;57.698;11.986;2023-06-24T09:05:09;10.37;;;6.17;;
14817;SDS011;7500;57.698;11.986;2023-06-24T09:07:36;10.40;;;5.63;;
14817;SDS011;7500;57.698;11.986;2023-06-24T09:10:03;10.60;;;5.80;;
14817;SDS011;7500;57.698;11.986;2023-06-24T09:12:31;11.07;;;6.30;;
14817;SDS011;7500;57.698;11.986;2023-06-24T09:14:59;9.20;;;5.60;;
14817;SDS011;7500;57.698;11.986;2023-06-24T09:17:25;10.53;;;5.67;;
14817;SDS011;7500;57.698;11.986;2023-06-24T09:19:53;12.10;;;5.90;;
14817;SDS011;7500;57.698;11.986;2023-06-24T09:22:21;9.20;;;5.23;;
14817;SDS011;7500;57.698;11.986;2023-06-24T09:24:48;11.13;;;5.23;;
14817;SDS011;7500;57.698;11.986;2023-06-24T09:27:15;8.23;;;5.50;;
14817;SDS011;7500;57.698;11.986;2023-06-24T09:29:42;9.93;;;5.73;;
14817;SDS011;7500;57.698;11.986;2023-06-24T09:32:10;10.27;;;5.37;;
14817;SDS011;7500;57.698;11.986;2023-06-24T09:34:37;7.57;;;5.40;;
14817;SDS011;7500;57.698;11.986;2023-06-24T09:37:03;12.20;;;5.80;;
14817;SDS011;7500;57.698;11.986;2023-06-24T09:39:34;10.03;;;5.77;;
14817;SDS011;7500;57.698;11.986;2023-06-24T09:42:02;7.80;;;5.40;;
14817;SDS011;7500;57.698;11.986;2023-06-24T09:44:28;7.40;;;5.27;;
14817;SDS011;7500;57.698;11.986;2023-06-24T09:46:55;8.60;;;5.60;;
14817;SDS011;7500;57.698;11.986;2023-06-24T09:49:24;7.97;;;4.97;;
14817;SDS011;7500;57.698;11.986;2023-06-24T09:51:53;13.97;;;5.23;;
14817;SDS011;7500;57.698;11.986;2023-06-24T09:54:21;8.32;;;5.07;;
14817;SDS011;7500;57.698;11.986;2023-06-24T09:56:48;9.67;;;5.67;;
14817;SDS011;7500;57.698;11.986;2023-06-24T09:59:15;8.40;;;5.13;;
14817;SDS011;7500;57.698;11.986;2023-06-24T10:01:45;9.67;;;5.53;;
14817;SDS011;7500;57.698;11.986;2023-06-24T10:04:13;7.77;;;5.10;;
14817;SDS011;7500;57.698;11.986;2023-06-24T10:06:42;7.83;;;5.20;;
14817;SDS011;7500;57.698;11.986;2023-06-24T10:09:09;9.20;;;5.73;;
14817;SDS011;7500;57.698;11.986;2023-06-24T10:11:38;9.97;;;5.10;;
14817;SDS011;7500;57.698;11.986;2023-06-24T10:14:05;10.97;;;5.87;;
14817;SDS011;7500;57.698;11.986;2023-06-24T10:16:31;10.40;;;5.70;;
14817;SDS011;7500;57.698;11.986;2023-06-24T10:18:59;12.17;;;5.40;;
14817;SDS011;7500;57.698;11.986;2023-06-24T10:21:28;8.33;;;4.97;;
14817;SDS011;7500;57.698;11.986;2023-06-24T10:24:11;9.83;;;5.33;;
14817;SDS011;7500;57.698;11.986;2023-06-24T10:26:39;9.10;;;5.40;;
14817;SDS011;7500;57.698;11.986;2023-06-24T10:29:09;9.57;;;4.83;;
14817;SDS011;7500;57.698;11.986;2023-06-24T10:31:51;11.67;;;4.97;;
14817;SDS011;7500;57.698;11.986;2023-06-24T10:34:27;8.23;;;5.00;;
14817;SDS011;7500;57.698;11.986;2023-06-24T10:36:54;8.77;;;5.37;;
14817;SDS011;7500;57.698;11.986;2023-06-24T10:39:38;7.47;;;5.43;;
14817;SDS011;7500;57.698;11.986;2023-06-24T10:44:50;7.90;;;4.23;;
14817;SDS011;7500;57.698;11.986;2023-06-24T10:47:17;9.40;;;5.40;;
14817;SDS011;7500;57.698;11.986;2023-06-24T10:49:43;7.27;;;4.77;;
14817;SDS011;7500;57.698;11.986;2023-06-24T10:52:10;7.63;;;4.70;;
14817;SDS011;7500;57.698;11.986;2023-06-24T10:54:40;7.07;;;5.17;;
14817;SDS011;7500;57.698;11.986;2023-06-24T10:57:07;8.80;;;5.00;;
14817;SDS011;7500;57.698;11.986;2023-06-24T10:59:34;7.30;;;5.30;;
14817;SDS011;7500;57.698;11.986;2023-06-24T11:02:00;8.23;;;4.80;;
14817;SDS011;7500;57.698;11.986;2023-06-24T11:04:27;8.10;;;4.77;;
14817;SDS011;7500;57.698;11.986;2023-06-24T11:06:58;7.83;;;4.87;;
14817;SDS011;7500;57.698;11.986;2023-06-24T11:09:24;9.80;;;5.13;;
14817;SDS011;7500;57.698;11.986;2023-06-24T11:11:52;7.90;;;5.00;;
14817;SDS011;7500;57.698;11.986;2023-06-24T11:14:19;8.43;;;4.97;;
14817;SDS011;7500;57.698;11.986;2023-06-24T11:16:46;11.23;;;5.20;;
14817;SDS011;7500;57.698;11.986;2023-06-24T11:19:13;8.48;;;5.13;;
14817;SDS011;7500;57.698;11.986;2023-06-24T11:21:39;9.97;;;5.73;;
14817;SDS011;7500;57.698;11.986;2023-06-24T11:24:06;7.15;;;5.20;;
14817;SDS011;7500;57.698;11.986;2023-06-24T11:26:33;9.97;;;5.20;;
14817;SDS011;7500;57.698;11.986;2023-06-24T11:29:01;7.55;;;4.90;;
14817;SDS011;7500;57.698;11.986;2023-06-24T11:31:27;9.93;;;4.72;;
14817;SDS011;7500;57.698;11.986;2023-06-24T11:33:54;10.70;;;5.22;;
14817;SDS011;7500;57.698;11.986;2023-06-24T11:36:21;9.67;;;4.90;;
14817;SDS011;7500;57.698;11.986;2023-06-24T11:38:48;8.02;;;5.30;;
14817;SDS011;7500;57.698;11.986;2023-06-24T11:41:15;9.30;;;5.60;;
14817;SDS011;7500;57.698;11.986;2023-06-24T11:43:43;8.80;;;5.22;;
14817;SDS011;7500;57.698;11.986;2023-06-24T11:46:11;8.68;;;5.22;;
14817;SDS011;7500;57.698;11.986;2023-06-24T11:48:46;10.02;;;5.32;;
14817;SDS011;7500;57.698;11.986;2023-06-24T11:51:13;9.27;;;5.87;;
14817;SDS011;7500;57.698;11.986;2023-06-24T11:53:43;10.67;;;4.63;;
14817;SDS011;7500;57.698;11.986;2023-06-24T11:56:10;9.73;;;5.10;;
14817;SDS011;7500;57.698;11.986;2023-06-24T11:58:37;7.23;;;4.50;;
14817;SDS011;7500;57.698;11.986;2023-06-24T12:01:06;11.17;;;5.00;;
14817;SDS011;7500;57.698;11.986;2023-06-24T12:03:34;9.10;;;4.70;;
14817;SDS011;7500;57.698;11.986;2023-06-24T12:06:01;8.50;;;4.80;;
14817;SDS011;7500;57.698;11.986;2023-06-24T12:08:27;7.20;;;4.70;;
14817;SDS011;7500;57.698;11.986;2023-06-24T12:10:54;10.17;;;4.90;;
14817;SDS011;7500;57.698;11.986;2023-06-24T12:13:21;7.33;;;4.30;;
14817;SDS011;7500;57.698;11.986;2023-06-24T12:15:48;11.40;;;5.00;;
14817;SDS011;7500;57.698;11.986;2023-06-24T12:18:14;9.70;;;5.13;;
14817;SDS011;7500;57.698;11.986;2023-06-24T12:20:42;9.10;;;4.17;;
14817;SDS011;7500;57.698;11.986;2023-06-24T12:23:09;6.00;;;4.37;;
14817;SDS011;7500;57.698;11.986;2023-06-24T12:25:36;10.17;;;4.47;;
14817;SDS011;7500;57.698;11.986;2023-06-24T12:28:03;8.23;;;4.30;;
14817;SDS011;7500;57.698;11.986;2023-06-24T12:30:29;7.43;;;4.70;;
14817;SDS011;7500;57.698;11.986;2023-06-24T12:32:56;9.27;;;4.77;;
14817;SDS011;7500;57.698;11.986;2023-06-24T12:35:24;12.97;;;5.80;;
14817;SDS011;7500;57.698;11.986;2023-06-24T12:37:53;10.73;;;5.23;;
14817;SDS011;7500;57.698;11.986;2023-06-24T12:40:19;8.50;;;5.00;;
14817;SDS011;7500;57.698;11.986;2023-06-24T12:42:46;11.50;;;4.50;;
14817;SDS011;7500;57.698;11.986;2023-06-24T12:45:12;7.63;;;4.47;;
14817;SDS011;7500;57.698;11.986;2023-06-24T12:47:39;10.80;;;4.57;;
14817;SDS011;7500;57.698;11.986;2023-06-24T12:50:06;6.80;;;4.50;;
14817;SDS011;7500;57.698;11.986;2023-06-24T12:52:33;9.40;;;4.27;;
14817;SDS011;7500;57.698;11.986;2023-06-24T12:55:01;6.73;;;3.87;;
14817;SDS011;7500;57.698;11.986;2023-06-24T12:57:28;8.33;;;4.30;;
14817;SDS011;7500;57.698;11.986;2023-06-24T12:59:55;6.70;;;4.20;;
14817;SDS011;7500;57.698;11.986;2023-06-24T13:02:22;8.27;;;4.27;;
14817;SDS011;7500;57.698;11.986;2023-06-24T13:04:48;7.47;;;3.87;;
14817;SDS011;7500;57.698;11.986;2023-06-24T13:07:15;10.33;;;4.07;;
14817;SDS011;7500;57.698;11.986;2023-06-24T13:09:41;8.53;;;4.20;;
14817;SDS011;7500;57.698;11.986;2023-06-24T13:12:10;6.93;;;3.67;;
14817;SDS011;7500;57.698;11.986;2023-06-24T13:14:36;9.43;;;4.10;;
14817;SDS011;7500;57.698;11.986;2023-06-24T13:17:03;6.63;;;4.13;;
14817;SDS011;7500;57.698;11.986;2023-06-24T13:19:30;7.63;;;4.73;;
14817;SDS011;7500;57.698;11.986;2023-06-24T13:21:57;6.43;;;4.10;;
14817;SDS011;7500;57.698;11.986;2023-06-24T13:24:24;7.20;;;4.10;;
14817;SDS011;7500;57.698;11.986;2023-06-24T13:26:52;9.07;;;4.10;;
14817;SDS011;7500;57.698;11.986;2023-06-24T13:29:20;7.07;;;4.70;;
14817;SDS011;7500;57.698;11.986;2023-06-24T13:31:46;5.57;;;4.30;;
14817;SDS011;7500;57.698;11.986;2023-06-24T13:34:13;7.37;;;4.40;;
14817;SDS011;7500;57.698;11.986;2023-06-24T13:36:40;6.47;;;4.20;;
14817;SDS011;7500;57.698;11.986;2023-06-24T13:39:08;9.87;;;5.03;;
14817;SDS011;7500;57.698;11.986;2023-06-24T13:41:36;8.43;;;4.97;;
14817;SDS011;7500;57.698;11.986;2023-06-24T13:44:03;8.10;;;4.63;;
14817;SDS011;7500;57.698;11.986;2023-06-24T13:46:31;9.00;;;4.60;;
14817;SDS011;7500;57.698;11.986;2023-06-24T13:48:58;12.07;;;4.93;;
14817;SDS011;7500;57.698;11.986;2023-06-24T13:51:25;7.70;;;4.80;;
14817;SDS011;7500;57.698;11.986;2023-06-24T13:53:52;8.37;;;5.10;;
14817;SDS011;7500;57.698;11.986;2023-06-24T13:56:19;9.57;;;5.33;;
14817;SDS011;7500;57.698;11.986;2023-06-24T13:58:46;13.20;;;6.20;;
14817;SDS011;7500;57.698;11.986;2023-06-24T14:01:13;11.20;;;6.80;;
14817;SDS011;7500;57.698;11.986;2023-06-24T14:03:42;9.67;;;6.17;;
14817;SDS011;7500;57.698;11.986;2023-06-24T14:06:09;9.43;;;5.53;;
14817;SDS011;7500;57.698;11.986;2023-06-24T14:08:35;11.23;;;5.53;;
14817;SDS011;7500;57.698;11.986;2023-06-24T14:11:02;9.73;;;5.87;;
14817;SDS011;7500;57.698;11.986;2023-06-24T14:13:29;7.70;;;5.17;;
14817;SDS011;7500;57.698;11.986;2023-06-24T14:15:56;11.77;;;5.67;;
14817;SDS011;7500;57.698;11.986;2023-06-24T14:18:23;9.77;;;5.70;;
14817;SDS011;7500;57.698;11.986;2023-06-24T14:20:51;10.13;;;5.67;;
14817;SDS011;7500;57.698;11.986;2023-06-24T14:23:18;7.93;;;5.40;;
14817;SDS011;7500;57.698;11.986;2023-06-24T14:25:45;10.80;;;5.37;;
14817;SDS011;7500;57.698;11.986;2023-06-24T14:28:11;10.53;;;5.23;;
14817;SDS011;7500;57.698;11.986;2023-06-24T14:30:38;8.93;;;5.10;;
14817;SDS011;7500;57.698;11.986;2023-06-24T14:33:06;10.03;;;5.40;;
14817;SDS011;7500;57.698;11.986;2023-06-24T14:35:33;10.90;;;5.07;;
14817;SDS011;7500;57.698;11.986;2023-06-24T14:38:01;14.73;;;8.70;;
14817;SDS011;7500;57.698;11.986;2023-06-24T14:40:28;10.30;;;6.30;;
14817;SDS011;7500;57.698;11.986;2023-06-24T14:42:55;10.57;;;6.40;;
14817;SDS011;7500;57.698;11.986;2023-06-24T14:45:21;8.40;;;5.97;;